sensor_id;sensor_type;location;lat;lon;timestamp;pressure;altitude;pressure_sealevel;temperature;humidity
71384;BME280;67558;52.166;5.004;2023-05-22T00:00:41;101701.41;;;19.09;62.25
71384;BME280;67558;52.166;5.004;2023-05-22T00:03:06;101717.09;;;19.12;62.49
71384;BME280;67558;52.166;5.004;2023-05-22T00:05:32;101700.59;;;19.09;62.14
71384;BME280;67558;52.166;5.004;2023-05-22T00:08:06;101688.97;;;19.08;62.19
71384;BME280;67558;52.166;5.004;2023-05-22T00:10:38;101683.03;;;19.06;62.15
71384;BME280;67558;52.166;5.004;2023-05-22T00:13:04;101703.31;;;19.09;62.11
71384;BME280;67558;52.166;5.004;2023-05-22T00:15:30;101694.88;;;19.10;62.15
71384;BME280;67558;52.166;5.004;2023-05-22T00:17:56;101691.66;;;19.08;62.29
71384;BME280;67558;52.166;5.004;2023-05-22T00:20:21;101651.09;;;18.89;62.27
71384;BME280;67558;52.166;5.004;2023-05-22T00:22:47;101679.50;;;19.06;62.24
71384;BME280;67558;52.166;5.004;2023-05-22T00:25:14;101672.78;;;19.03;62.56
71384;BME280;67558;52.166;5.004;2023-05-22T00:27:42;101667.34;;;19.03;62.70
71384;BME280;67558;52.166;5.004;2023-05-22T00:30:07;101654.13;;;19.01;62.68
71384;BME280;67558;52.166;5.004;2023-05-22T00:32:33;101659.13;;;19.08;62.35
71384;BME280;67558;52.166;5.004;2023-05-22T00:34:58;101657.50;;;19.07;62.46
71384;BME280;67558;52.166;5.004;2023-05-22T00:37:23;101635.72;;;18.98;62.61
71384;BME280;67558;52.166;5.004;2023-05-22T00:39:49;101632.59;;;19.05;62.88
71384;BME280;67558;52.166;5.004;2023-05-22T00:42:15;101638.81;;;19.06;62.61
71384;BME280;67558;52.166;5.004;2023-05-22T00:44:41;101635.44;;;19.00;62.60
71384;BME280;67558;52.166;5.004;2023-05-22T00:47:06;101630.50;;;19.02;62.68
71384;BME280;67558;52.166;5.004;2023-05-22T00:49:32;101625.59;;;19.04;62.79
71384;BME280;67558;52.166;5.004;2023-05-22T00:51:57;101622.88;;;19.04;62.78
71384;BME280;67558;52.166;5.004;2023-05-22T00:54:22;101617.13;;;19.19;62.12
71384;BME280;67558;52.166;5.004;2023-05-22T00:56:49;101615.22;;;19.20;62.35
71384;BME280;67558;52.166;5.004;2023-05-22T00:59:15;101622.56;;;19.19;62.08
71384;BME280;67558;52.166;5.004;2023-05-22T01:01:41;101622.66;;;19.14;62.22
71384;BME280;67558;52.166;5.004;2023-05-22T01:04:09;101624.75;;;19.17;62.29
71384;BME280;67558;52.166;5.004;2023-05-22T01:06:35;101624.97;;;19.21;62.19
71384;BME280;67558;52.166;5.004;2023-05-22T01:09:01;101639.31;;;19.21;62.20
71384;BME280;67558;52.166;5.004;2023-05-22T01:11:36;101627.78;;;19.16;62.25
71384;BME280;67558;52.166;5.004;2023-05-22T01:14:14;101629.56;;;19.20;62.27
71384;BME280;67558;52.166;5.004;2023-05-22T01:22:33;101626.34;;;19.18;62.05
71384;BME280;67558;52.166;5.004;2023-05-22T01:32:46;101597.44;;;19.14;62.44
71384;BME280;67558;52.166;5.004;2023-05-22T01:35:15;101602.69;;;19.10;62.30
71384;BME280;67558;52.166;5.004;2023-05-22T01:37:43;101605.69;;;19.09;62.54
71384;BME280;67558;52.166;5.004;2023-05-22T01:40:10;101607.28;;;19.10;62.29
71384;BME280;67558;52.166;5.004;2023-05-22T01:42:36;101598.97;;;19.06;62.27
71384;BME280;67558;52.166;5.004;2023-05-22T01:45:07;101608.19;;;19.05;62.42
71384;BME280;67558;52.166;5.004;2023-05-22T01:47:33;101603.41;;;19.02;62.15
71384;BME280;67558;52.166;5.004;2023-05-22T01:49:59;101595.06;;;18.98;62.50
71384;BME280;67558;52.166;5.004;2023-05-22T01:55:08;101601.19;;;19.04;62.66
71384;BME280;67558;52.166;5.004;2023-05-22T01:57:58;101597.19;;;19.01;62.29
71384;BME280;67558;52.166;5.004;2023-05-22T02:00:25;101589.34;;;19.00;62.56
71384;BME280;67558;52.166;5.004;2023-05-22T02:03:15;101597.56;;;18.95;62.69
71384;BME280;67558;52.166;5.004;2023-05-22T02:05:42;101587.84;;;18.94;62.27
71384;BME280;67558;52.166;5.004;2023-05-22T02:08:09;101582.19;;;18.90;62.61
71384;BME280;67558;52.166;5.004;2023-05-22T02:10:36;101584.75;;;18.87;62.40
71384;BME280;67558;52.166;5.004;2023-05-22T02:13:02;101566.97;;;18.80;62.32
71384;BME280;67558;52.166;5.004;2023-05-22T02:15:28;101582.91;;;18.82;62.32
71384;BME280;67558;52.166;5.004;2023-05-22T02:17:54;101568.44;;;18.73;62.57
71384;BME280;67558;52.166;5.004;2023-05-22T02:20:19;101573.34;;;18.71;62.79
71384;BME280;67558;52.166;5.004;2023-05-22T02:22:46;101569.34;;;18.54;63.09
71384;BME280;67558;52.166;5.004;2023-05-22T02:25:12;101565.63;;;18.50;62.99
71384;BME280;67558;52.166;5.004;2023-05-22T02:27:42;101566.53;;;18.46;63.41
71384;BME280;67558;52.166;5.004;2023-05-22T02:30:09;101567.41;;;18.41;63.58
71384;BME280;67558;52.166;5.004;2023-05-22T02:32:35;101554.47;;;18.38;63.37
71384;BME280;67558;52.166;5.004;2023-05-22T02:35:00;101567.75;;;18.39;63.42
71384;BME280;67558;52.166;5.004;2023-05-22T02:37:26;101562.09;;;18.36;63.50
71384;BME280;67558;52.166;5.004;2023-05-22T02:39:51;101565.72;;;18.31;63.29
71384;BME280;67558;52.166;5.004;2023-05-22T02:42:16;101568.44;;;18.31;63.41
71384;BME280;67558;52.166;5.004;2023-05-22T02:44:42;101564.41;;;18.29;63.22
71384;BME280;67558;52.166;5.004;2023-05-22T02:47:07;101565.00;;;18.26;63.45
71384;BME280;67558;52.166;5.004;2023-05-22T02:49:32;101560.88;;;18.28;63.35
71384;BME280;67558;52.166;5.004;2023-05-22T02:51:58;101551.84;;;18.19;63.19
71384;BME280;67558;52.166;5.004;2023-05-22T02:54:23;101560.78;;;18.19;63.50
71384;BME280;67558;52.166;5.004;2023-05-22T02:56:48;101550.94;;;18.10;63.54
71384;BME280;67558;52.166;5.004;2023-05-22T02:59:14;101555.75;;;18.13;63.20
71384;BME280;67558;52.166;5.004;2023-05-22T03:01:40;101554.94;;;18.12;63.10
71384;BME280;67558;52.166;5.004;2023-05-22T03:04:05;101558.44;;;18.13;63.22
71384;BME280;67558;52.166;5.004;2023-05-22T03:06:31;101554.44;;;18.10;63.45
71384;BME280;67558;52.166;5.004;2023-05-22T03:08:56;101554.72;;;18.09;63.56
71384;BME280;67558;52.166;5.004;2023-05-22T03:11:22;101545.03;;;18.08;63.26
71384;BME280;67558;52.166;5.004;2023-05-22T03:13:47;101551.00;;;18.05;63.21
71384;BME280;67558;52.166;5.004;2023-05-22T03:16:12;101548.13;;;18.01;63.12
71384;BME280;67558;52.166;5.004;2023-05-22T03:18:38;101545.41;;;18.01;63.42
71384;BME280;67558;52.166;5.004;2023-05-22T03:21:03;101549.19;;;18.00;63.31
71384;BME280;67558;52.166;5.004;2023-05-22T03:23:29;101540.88;;;17.96;63.39
71384;BME280;67558;52.166;5.004;2023-05-22T03:25:54;101549.00;;;17.96;63.24
71384;BME280;67558;52.166;5.004;2023-05-22T03:28:21;101540.97;;;17.91;63.32
71384;BME280;67558;52.166;5.004;2023-05-22T03:30:46;101545.56;;;17.91;63.23
71384;BME280;67558;52.166;5.004;2023-05-22T03:33:11;101539.94;;;17.87;63.25
71384;BME280;67558;52.166;5.004;2023-05-22T03:35:37;101535.53;;;17.91;63.13
71384;BME280;67558;52.166;5.004;2023-05-22T03:38:02;101544.56;;;17.87;63.42
71384;BME280;67558;52.166;5.004;2023-05-22T03:40:27;101545.34;;;17.87;63.54
71384;BME280;67558;52.166;5.004;2023-05-22T03:42:53;101541.91;;;17.81;63.36
71384;BME280;67558;52.166;5.004;2023-05-22T03:45:18;101541.91;;;17.81;63.20
71384;BME280;67558;52.166;5.004;2023-05-22T03:47:43;101530.38;;;17.76;63.54
71384;BME280;67558;52.166;5.004;2023-05-22T03:50:09;101545.19;;;17.78;63.57
71384;BME280;67558;52.166;5.004;2023-05-22T03:52:35;101532.06;;;17.72;63.37
71384;BME280;67558;52.166;5.004;2023-05-22T03:55:00;101548.50;;;17.75;63.66
71384;BME280;67558;52.166;5.004;2023-05-22T03:57:26;101536.38;;;17.73;63.40
71384;BME280;67558;52.166;5.004;2023-05-22T03:59:51;101548.50;;;17.75;63.40
71384;BME280;67558;52.166;5.004;2023-05-22T04:02:17;101548.72;;;17.79;63.25
71384;BME280;67558;52.166;5.004;2023-05-22T04:04:42;101540.63;;;17.79;63.34
71384;BME280;67558;52.166;5.004;2023-05-22T04:07:11;101543.25;;;17.84;63.43
71384;BME280;67558;52.166;5.004;2023-05-22T04:09:37;101542.66;;;17.87;63.38
71384;BME280;67558;52.166;5.004;2023-05-22T04:12:03;101551.72;;;17.96;63.19
71384;BME280;67558;52.166;5.004;2023-05-22T04:14:28;101533.44;;;17.88;63.39
71384;BME280;67558;52.166;5.004;2023-05-22T04:16:54;101562.72;;;18.00;63.48
71384;BME280;67558;52.166;5.004;2023-05-22T04:19:19;101562.94;;;18.04;63.28
71384;BME280;67558;52.166;5.004;2023-05-22T04:21:45;101549.00;;;17.96;63.50
71384;BME280;67558;52.166;5.004;2023-05-22T04:24:11;101567.25;;;18.05;63.61
71384;BME280;67558;52.166;5.004;2023-05-22T04:26:37;101568.88;;;18.06;63.28
71384;BME280;67558;52.166;5.004;2023-05-22T04:29:03;101566.38;;;18.09;63.21
71384;BME280;67558;52.166;5.004;2023-05-22T04:31:30;101574.31;;;18.19;63.27
71384;BME280;67558;52.166;5.004;2023-05-22T04:33:56;101579.16;;;18.23;62.99
71384;BME280;67558;52.166;5.004;2023-05-22T04:36:24;101576.72;;;18.21;62.79
71384;BME280;67558;52.166;5.004;2023-05-22T04:38:53;101580.09;;;18.46;62.27
71384;BME280;67558;52.166;5.004;2023-05-22T04:41:19;101587.50;;;18.54;62.06
71384;BME280;67558;52.166;5.004;2023-05-22T04:43:48;101587.81;;;18.52;62.01
71384;BME280;67558;52.166;5.004;2023-05-22T04:46:14;101601.25;;;18.57;61.85
71384;BME280;67558;52.166;5.004;2023-05-22T04:48:40;101595.34;;;18.55;61.67
71384;BME280;67558;52.166;5.004;2023-05-22T04:51:06;101604.97;;;18.61;61.68
71384;BME280;67558;52.166;5.004;2023-05-22T04:53:31;101606.28;;;18.64;61.68
71384;BME280;67558;52.166;5.004;2023-05-22T04:56:00;101604.38;;;18.65;61.56
71384;BME280;67558;52.166;5.004;2023-05-22T04:58:25;101600.78;;;18.69;61.60
71384;BME280;67558;52.166;5.004;2023-05-22T05:00:52;101599.53;;;18.75;61.61
71384;BME280;67558;52.166;5.004;2023-05-22T05:03:18;101563.13;;;18.54;61.67
71384;BME280;67558;52.166;5.004;2023-05-22T05:05:44;101596.59;;;18.91;61.32
71384;BME280;67558;52.166;5.004;2023-05-22T05:08:10;101593.97;;;18.86;61.26
71384;BME280;67558;52.166;5.004;2023-05-22T05:10:35;101593.38;;;18.89;61.50
71384;BME280;67558;52.166;5.004;2023-05-22T05:13:00;101607.03;;;18.97;61.56
71384;BME280;67558;52.166;5.004;2023-05-22T05:15:26;101598.28;;;19.00;61.46
71384;BME280;67558;52.166;5.004;2023-05-22T05:17:52;101600.47;;;19.12;61.20
71384;BME280;67558;52.166;5.004;2023-05-22T05:20:17;101595.44;;;19.19;61.18
71384;BME280;67558;52.166;5.004;2023-05-22T05:22:42;101599.44;;;19.22;61.52
71384;BME280;67558;52.166;5.004;2023-05-22T05:25:10;101605.16;;;19.34;60.95
71384;BME280;67558;52.166;5.004;2023-05-22T05:27:35;101588.44;;;19.41;60.77
71384;BME280;67558;52.166;5.004;2023-05-22T05:30:01;101596.53;;;19.55;60.81
71384;BME280;67558;52.166;5.004;2023-05-22T05:32:26;101607.66;;;19.67;60.59
71384;BME280;67558;52.166;5.004;2023-05-22T05:34:52;101593.38;;;19.75;60.43
71384;BME280;67558;52.166;5.004;2023-05-22T05:37:17;101596.03;;;19.89;60.32
71384;BME280;67558;52.166;5.004;2023-05-22T05:39:42;101607.94;;;20.02;60.26
71384;BME280;67558;52.166;5.004;2023-05-22T05:42:08;101595.69;;;20.13;59.94
71384;BME280;67558;52.166;5.004;2023-05-22T05:44:33;101593.16;;;20.17;59.90
71384;BME280;67558;52.166;5.004;2023-05-22T05:46:58;101600.31;;;20.35;59.64
71384;BME280;67558;52.166;5.004;2023-05-22T05:49:25;101604.53;;;20.50;59.57
71384;BME280;67558;52.166;5.004;2023-05-22T05:51:51;101593.03;;;20.53;59.57
71384;BME280;67558;52.166;5.004;2023-05-22T05:54:16;101596.78;;;20.66;59.42
71384;BME280;67558;52.166;5.004;2023-05-22T05:56:41;101599.72;;;20.78;59.34
71384;BME280;67558;52.166;5.004;2023-05-22T05:59:07;101603.25;;;20.88;59.16
71384;BME280;67558;52.166;5.004;2023-05-22T06:01:34;101599.75;;;20.96;59.26
71384;BME280;67558;52.166;5.004;2023-05-22T06:04:00;101596.41;;;21.07;58.80
71384;BME280;67558;52.166;5.004;2023-05-22T06:06:30;101600.75;;;21.17;58.47
71384;BME280;67558;52.166;5.004;2023-05-22T06:09:00;101597.72;;;21.27;58.56
71384;BME280;67558;52.166;5.004;2023-05-22T06:11:26;101600.13;;;21.38;58.48
71384;BME280;67558;52.166;5.004;2023-05-22T06:13:52;101590.41;;;21.45;58.24
71384;BME280;67558;52.166;5.004;2023-05-22T06:16:17;101592.63;;;21.61;58.34
71384;BME280;67558;52.166;5.004;2023-05-22T06:18:42;101592.63;;;21.70;58.15
71384;BME280;67558;52.166;5.004;2023-05-22T06:21:08;101596.16;;;21.53;58.47
71384;BME280;67558;52.166;5.004;2023-05-22T06:23:33;101590.72;;;21.53;58.72
71384;BME280;67558;52.166;5.004;2023-05-22T06:25:58;101602.25;;;21.58;58.86
71384;BME280;67558;52.166;5.004;2023-05-22T06:28:24;101587.97;;;21.61;58.37
71384;BME280;67558;52.166;5.004;2023-05-22T06:30:49;101588.63;;;21.67;58.31
71384;BME280;67558;52.166;5.004;2023-05-22T06:33:15;101593.09;;;21.80;58.72
71384;BME280;67558;52.166;5.004;2023-05-22T06:35:40;101593.41;;;21.87;58.50
71384;BME280;67558;52.166;5.004;2023-05-22T06:38:06;101601.59;;;21.96;57.92
71384;BME280;67558;52.166;5.004;2023-05-22T06:40:31;101601.56;;;22.05;58.12
71384;BME280;67558;52.166;5.004;2023-05-22T06:42:57;101598.34;;;22.12;57.85
71384;BME280;67558;52.166;5.004;2023-05-22T06:45:23;101607.59;;;22.19;57.74
71384;BME280;67558;52.166;5.004;2023-05-22T06:47:53;101605.53;;;22.25;57.31
71384;BME280;67558;52.166;5.004;2023-05-22T06:50:22;101614.47;;;22.34;57.31
71384;BME280;67558;52.166;5.004;2023-05-22T06:52:47;101613.66;;;22.42;57.59
71384;BME280;67558;52.166;5.004;2023-05-22T06:55:13;101617.81;;;22.48;57.18
71384;BME280;67558;52.166;5.004;2023-05-22T06:57:39;101611.53;;;22.57;56.79
71384;BME280;67558;52.166;5.004;2023-05-22T07:00:04;101616.00;;;22.61;56.71
71384;BME280;67558;52.166;5.004;2023-05-22T07:02:35;101617.25;;;22.64;56.63
71384;BME280;67558;52.166;5.004;2023-05-22T07:05:01;101618.69;;;22.70;56.86
71384;BME280;67558;52.166;5.004;2023-05-22T07:07:26;101617.50;;;22.80;56.96
71384;BME280;67558;52.166;5.004;2023-05-22T07:09:51;101619.91;;;22.81;56.81
71384;BME280;67558;52.166;5.004;2023-05-22T07:12:17;101628.38;;;22.88;56.50
71384;BME280;67558;52.166;5.004;2023-05-22T07:14:44;101632.50;;;22.95;56.41
71384;BME280;67558;52.166;5.004;2023-05-22T07:17:09;101628.78;;;22.99;56.55
71384;BME280;67558;52.166;5.004;2023-05-22T07:19:35;101632.63;;;23.07;56.72
71384;BME280;67558;52.166;5.004;2023-05-22T07:22:00;101641.09;;;23.14;56.62
71384;BME280;67558;52.166;5.004;2023-05-22T07:24:25;101635.94;;;23.21;56.74
71384;BME280;67558;52.166;5.004;2023-05-22T07:26:51;101632.06;;;23.22;56.29
71384;BME280;67558;52.166;5.004;2023-05-22T07:29:16;101640.97;;;23.31;56.28
71384;BME280;67558;52.166;5.004;2023-05-22T07:31:42;101637.91;;;23.33;56.07
71384;BME280;67558;52.166;5.004;2023-05-22T07:34:07;101612.22;;;23.13;56.13
71384;BME280;67558;52.166;5.004;2023-05-22T07:36:33;101614.09;;;23.21;56.52
71384;BME280;67558;52.166;5.004;2023-05-22T07:38:59;101634.53;;;23.36;56.37
71384;BME280;67558;52.166;5.004;2023-05-22T07:41:24;101626.16;;;23.41;56.57
71384;BME280;67558;52.166;5.004;2023-05-22T07:43:51;101625.81;;;23.43;56.39
71384;BME280;67558;52.166;5.004;2023-05-22T07:46:16;101622.72;;;23.44;56.58
71384;BME280;67558;52.166;5.004;2023-05-22T07:48:42;101631.69;;;23.54;56.56
71384;BME280;67558;52.166;5.004;2023-05-22T07:51:08;101627.72;;;23.63;56.62
71384;BME280;67558;52.166;5.004;2023-05-22T07:53:34;101631.38;;;23.67;56.65
71384;BME280;67558;52.166;5.004;2023-05-22T07:56:00;101622.09;;;23.68;56.42
71384;BME280;67558;52.166;5.004;2023-05-22T07:58:25;101623.94;;;23.77;56.48
71384;BME280;67558;52.166;5.004;2023-05-22T08:00:51;101630.59;;;23.88;56.35
71384;BME280;67558;52.166;5.004;2023-05-22T08:03:16;101629.47;;;23.89;56.17
71384;BME280;67558;52.166;5.004;2023-05-22T08:05:42;101626.88;;;23.92;56.37
71384;BME280;67558;52.166;5.004;2023-05-22T08:08:07;101634.50;;;23.99;56.26
71384;BME280;67558;52.166;5.004;2023-05-22T08:10:34;101638.16;;;24.03;56.51
71384;BME280;67558;52.166;5.004;2023-05-22T08:13:00;101629.75;;;24.08;56.23
71384;BME280;67558;52.166;5.004;2023-05-22T08:15:30;101630.81;;;24.16;55.92
71384;BME280;67558;52.166;5.004;2023-05-22T08:17:56;101636.28;;;24.16;55.75
71384;BME280;67558;52.166;5.004;2023-05-22T08:20:21;101642.75;;;24.11;55.60
71384;BME280;67558;52.166;5.004;2023-05-22T08:22:46;101632.47;;;24.08;55.91
71384;BME280;67558;52.166;5.004;2023-05-22T08:25:12;101633.03;;;24.02;55.94
71384;BME280;67558;52.166;5.004;2023-05-22T08:27:37;101629.75;;;24.08;55.53
71384;BME280;67558;52.166;5.004;2023-05-22T08:30:25;101627.16;;;24.12;55.89
71384;BME280;67558;52.166;5.004;2023-05-22T08:32:50;101622.16;;;24.14;55.61
71384;BME280;67558;52.166;5.004;2023-05-22T08:35:16;101629.09;;;24.24;55.98
71384;BME280;67558;52.166;5.004;2023-05-22T08:37:41;101621.81;;;24.28;55.76
71384;BME280;67558;52.166;5.004;2023-05-22T08:40:10;101628.66;;;24.34;56.04
71384;BME280;67558;52.166;5.004;2023-05-22T08:42:37;101628.91;;;24.41;55.63
71384;BME280;67558;52.166;5.004;2023-05-22T08:45:03;101622.75;;;24.44;55.40
71384;BME280;67558;52.166;5.004;2023-05-22T08:47:30;101627.09;;;24.45;55.32
71384;BME280;67558;52.166;5.004;2023-05-22T08:49:58;101621.63;;;24.45;55.12
71384;BME280;67558;52.166;5.004;2023-05-22T08:52:38;101625.50;;;24.44;55.27
71384;BME280;67558;52.166;5.004;2023-05-22T08:55:07;101624.81;;;24.47;55.06
71384;BME280;67558;52.166;5.004;2023-05-22T08:57:33;101613.41;;;24.45;55.19
71384;BME280;67558;52.166;5.004;2023-05-22T08:59:59;101617.56;;;24.51;55.37
71384;BME280;67558;52.166;5.004;2023-05-22T09:02:24;101622.00;;;24.56;55.22
71384;BME280;67558;52.166;5.004;2023-05-22T09:04:50;101607.06;;;24.53;55.12
71384;BME280;67558;52.166;5.004;2023-05-22T09:07:16;101621.44;;;24.63;55.22
71384;BME280;67558;52.166;5.004;2023-05-22T09:09:42;101604.56;;;24.61;55.18
71384;BME280;67558;52.166;5.004;2023-05-22T09:12:08;101617.56;;;24.64;55.34
71384;BME280;67558;52.166;5.004;2023-05-22T09:14:43;101609.47;;;24.67;55.64
71384;BME280;67558;52.166;5.004;2023-05-22T09:17:10;101610.38;;;24.71;55.09
71384;BME280;67558;52.166;5.004;2023-05-22T09:19:42;101609.56;;;24.71;54.80
71384;BME280;67558;52.166;5.004;2023-05-22T09:22:08;101607.31;;;24.73;55.01
71384;BME280;67558;52.166;5.004;2023-05-22T09:24:40;101608.66;;;24.79;54.75
71384;BME280;67558;52.166;5.004;2023-05-22T09:27:09;101611.06;;;24.81;54.70
71384;BME280;67558;52.166;5.004;2023-05-22T09:29:52;101611.88;;;24.81;54.61
71384;BME280;67558;52.166;5.004;2023-05-22T09:32:18;101614.81;;;24.88;54.61
71384;BME280;67558;52.166;5.004;2023-05-22T09:34:45;101607.88;;;24.91;54.41
71384;BME280;67558;52.166;5.004;2023-05-22T09:37:14;101598.41;;;24.88;54.50
71384;BME280;67558;52.166;5.004;2023-05-22T09:39:42;101609.47;;;24.92;54.04
71384;BME280;67558;52.166;5.004;2023-05-22T09:42:09;101610.25;;;25.05;53.55
71384;BME280;67558;52.166;5.004;2023-05-22T09:44:37;101591.34;;;25.00;54.16
71384;BME280;67558;52.166;5.004;2023-05-22T09:47:05;101604.19;;;24.99;54.16
71384;BME280;67558;52.166;5.004;2023-05-22T09:49:30;101595.44;;;24.93;54.17
71384;BME280;67558;52.166;5.004;2023-05-22T09:51:57;101599.09;;;24.98;54.33
71384;BME280;67558;52.166;5.004;2023-05-22T09:54:24;101606.94;;;24.99;54.13
71384;BME280;67558;52.166;5.004;2023-05-22T09:56:52;101604.78;;;25.05;54.26
71384;BME280;67558;52.166;5.004;2023-05-22T09:59:21;101606.00;;;25.07;54.26
71384;BME280;67558;52.166;5.004;2023-05-22T10:01:50;101601.78;;;25.10;53.80
71384;BME280;67558;52.166;5.004;2023-05-22T10:04:17;101605.69;;;25.09;53.88
71384;BME280;67558;52.166;5.004;2023-05-22T10:06:46;101597.72;;;25.04;53.65
71384;BME280;67558;52.166;5.004;2023-05-22T10:09:14;101600.44;;;25.04;54.06
71384;BME280;67558;52.166;5.004;2023-05-22T10:11:42;101594.53;;;25.02;53.93
71384;BME280;67558;52.166;5.004;2023-05-22T10:14:08;101597.81;;;25.07;53.99
71384;BME280;67558;52.166;5.004;2023-05-22T10:16:34;101604.97;;;25.12;53.85
71384;BME280;67558;52.166;5.004;2023-05-22T10:19:02;101598.81;;;25.15;53.88
71384;BME280;67558;52.166;5.004;2023-05-22T10:21:29;101605.22;;;25.19;53.74
71384;BME280;67558;52.166;5.004;2023-05-22T10:24:00;101607.13;;;25.19;53.63
71384;BME280;67558;52.166;5.004;2023-05-22T10:26:26;101603.84;;;25.13;53.26
71384;BME280;67558;52.166;5.004;2023-05-22T10:29:09;101602.81;;;25.18;53.26
71384;BME280;67558;52.166;5.004;2023-05-22T10:32:02;101600.41;;;25.16;53.22
71384;BME280;67558;52.166;5.004;2023-05-22T10:37:48;101589.00;;;25.14;53.86
71384;BME280;67558;52.166;5.004;2023-05-22T10:40:25;101596.31;;;25.22;54.08
71384;BME280;67558;52.166;5.004;2023-05-22T10:43:01;101600.22;;;25.21;53.38
71384;BME280;67558;52.166;5.004;2023-05-22T10:45:27;101587.09;;;25.14;53.23
71384;BME280;67558;52.166;5.004;2023-05-22T10:48:06;101587.75;;;25.11;52.94
71384;BME280;67558;52.166;5.004;2023-05-22T10:50:34;101587.97;;;25.19;52.95
71384;BME280;67558;52.166;5.004;2023-05-22T10:53:19;101588.44;;;25.21;52.93
71384;BME280;67558;52.166;5.004;2023-05-22T10:55:46;101563.66;;;25.29;52.19
71384;BME280;67558;52.166;5.004;2023-05-22T10:58:12;101583.69;;;25.46;52.25
71384;BME280;67558;52.166;5.004;2023-05-22T11:00:38;101585.72;;;25.49;51.96
71384;BME280;67558;52.166;5.004;2023-05-22T11:03:03;101579.53;;;25.64;51.61
71384;BME280;67558;52.166;5.004;2023-05-22T11:05:32;101583.75;;;25.62;51.75
71384;BME280;67558;52.166;5.004;2023-05-22T11:08:37;101583.84;;;25.65;51.09
71384;BME280;67558;52.166;5.004;2023-05-22T11:11:10;101577.88;;;25.75;51.71
71384;BME280;67558;52.166;5.004;2023-05-22T11:13:37;101570.31;;;25.72;51.98
71384;BME280;67558;52.166;5.004;2023-05-22T11:16:07;101575.50;;;25.62;52.48
71384;BME280;67558;52.166;5.004;2023-05-22T11:18:33;101576.69;;;25.61;52.63
71384;BME280;67558;52.166;5.004;2023-05-22T11:20:58;101577.31;;;25.70;52.31
71384;BME280;67558;52.166;5.004;2023-05-22T11:23:25;101576.41;;;25.66;52.29
71384;BME280;67558;52.166;5.004;2023-05-22T11:25:50;101579.25;;;25.69;52.29
71384;BME280;67558;52.166;5.004;2023-05-22T11:28:15;101574.94;;;25.68;52.37
71384;BME280;67558;52.166;5.004;2023-05-22T11:30:42;101572.13;;;25.81;52.13
71384;BME280;67558;52.166;5.004;2023-05-22T11:33:07;101566.63;;;25.81;52.45
71384;BME280;67558;52.166;5.004;2023-05-22T11:35:33;101569.31;;;25.77;52.38
71384;BME280;67558;52.166;5.004;2023-05-22T11:38:03;101567.81;;;25.80;52.53
71384;BME280;67558;52.166;5.004;2023-05-22T11:40:28;101563.22;;;25.84;52.49
71384;BME280;67558;52.166;5.004;2023-05-22T11:42:54;101557.81;;;25.87;52.11
71384;BME280;67558;52.166;5.004;2023-05-22T11:45:20;101564.69;;;25.81;52.00
71384;BME280;67558;52.166;5.004;2023-05-22T11:47:45;101561.53;;;25.79;52.09
71384;BME280;67558;52.166;5.004;2023-05-22T11:50:12;101555.94;;;25.75;51.56
71384;BME280;67558;52.166;5.004;2023-05-22T11:52:40;101559.63;;;25.95;51.83
71384;BME280;67558;52.166;5.004;2023-05-22T11:55:06;101561.03;;;25.89;51.56
71384;BME280;67558;52.166;5.004;2023-05-22T11:57:33;101556.47;;;25.81;51.30
71384;BME280;67558;52.166;5.004;2023-05-22T11:59:59;101570.28;;;25.85;51.63
71384;BME280;67558;52.166;5.004;2023-05-22T12:02:24;101573.47;;;25.87;51.62
71384;BME280;67558;52.166;5.004;2023-05-22T12:04:54;101564.00;;;25.84;50.85
71384;BME280;67558;52.166;5.004;2023-05-22T12:07:20;101571.19;;;25.89;51.38
71384;BME280;67558;52.166;5.004;2023-05-22T12:09:47;101571.97;;;25.89;51.19
71384;BME280;67558;52.166;5.004;2023-05-22T12:12:14;101577.56;;;25.93;51.06
71384;BME280;67558;52.166;5.004;2023-05-22T12:14:43;101569.78;;;25.95;50.64
71384;BME280;67558;52.166;5.004;2023-05-22T12:17:11;101556.44;;;25.93;51.02
71384;BME280;67558;52.166;5.004;2023-05-22T12:19:38;101566.88;;;26.04;50.37
71384;BME280;67558;52.166;5.004;2023-05-22T12:22:04;101560.34;;;26.08;50.29
71384;BME280;67558;52.166;5.004;2023-05-22T12:24:43;101580.75;;;26.11;48.27
71384;BME280;67558;52.166;5.004;2023-05-22T12:27:12;101571.47;;;26.15;49.04
71384;BME280;67558;52.166;5.004;2023-05-22T12:29:38;101577.41;;;26.18;48.99
71384;BME280;67558;52.166;5.004;2023-05-22T12:32:07;101570.06;;;26.22;49.08
71384;BME280;67558;52.166;5.004;2023-05-22T12:34:35;101577.16;;;26.23;49.60
71384;BME280;67558;52.166;5.004;2023-05-22T12:37:00;101575.19;;;26.23;49.32
71384;BME280;67558;52.166;5.004;2023-05-22T12:39:27;101564.97;;;26.20;49.55
71384;BME280;67558;52.166;5.004;2023-05-22T12:41:52;101572.19;;;26.28;49.41
71384;BME280;67558;52.166;5.004;2023-05-22T12:44:18;101566.34;;;26.30;49.88
71384;BME280;67558;52.166;5.004;2023-05-22T12:46:43;101576.19;;;26.31;49.67
71384;BME280;67558;52.166;5.004;2023-05-22T12:49:09;101562.72;;;26.26;49.76
71384;BME280;67558;52.166;5.004;2023-05-22T12:51:35;101574.69;;;26.33;49.39
71384;BME280;67558;52.166;5.004;2023-05-22T12:54:01;101567.69;;;26.36;49.52
71384;BME280;67558;52.166;5.004;2023-05-22T12:56:30;101581.50;;;26.40;49.46
71384;BME280;67558;52.166;5.004;2023-05-22T12:58:57;101582.72;;;26.42;49.44
71384;BME280;67558;52.166;5.004;2023-05-22T13:01:23;101584.41;;;26.47;49.54
71384;BME280;67558;52.166;5.004;2023-05-22T13:03:50;101575.81;;;26.48;49.47
71384;BME280;67558;52.166;5.004;2023-05-22T13:06:15;101569.59;;;26.51;48.72
71384;BME280;67558;52.166;5.004;2023-05-22T13:08:41;101581.47;;;26.55;48.99